createdAt,value
2019-02-03T00:02:12.742Z,94452.00
2019-02-03T00:04:44.866Z,94456.00
2019-02-03T00:07:16.804Z,94436.00
2019-02-03T00:09:49.562Z,94426.00
2019-02-03T00:12:21.441Z,94417.00
2019-02-03T00:14:53.298Z,94421.00
2019-02-03T00:17:25.195Z,94421.00
2019-02-03T00:19:57.030Z,94416.00
2019-02-03T00:22:28.932Z,94426.00
2019-02-03T00:25:01.154Z,94424.00
2019-02-03T00:27:33.501Z,94423.00
2019-02-03T00:30:06.949Z,94408.00
2019-02-03T00:32:38.816Z,94410.00
2019-02-03T00:35:10.679Z,94406.00
2019-02-03T00:37:42.596Z,94394.00
2019-02-03T00:40:14.844Z,94384.00
2019-02-03T00:42:46.742Z,94363.00
2019-02-03T00:45:18.454Z,94344.00
2019-02-03T00:47:51.433Z,94346.00
2019-02-03T00:50:23.444Z,94369.00
2019-02-03T00:52:58.026Z,94392.00
2019-02-03T00:55:29.972Z,94407.00
2019-02-03T00:58:01.988Z,94421.00
2019-02-03T01:00:33.859Z,94425.00
2019-02-03T01:03:05.925Z,94425.00
2019-02-03T01:05:37.828Z,94409.00
2019-02-03T01:08:10.522Z,94391.00
2019-02-03T01:10:42.402Z,94404.00
2019-02-03T01:13:14.274Z,94404.00
2019-02-03T01:15:46.156Z,94413.00
2019-02-03T01:18:18.016Z,94407.00
2019-02-03T01:20:50.198Z,94432.00
2019-02-03T01:23:22.051Z,94428.00
2019-02-03T01:25:53.928Z,94442.00
2019-02-03T01:28:25.866Z,94438.00
2019-02-03T01:30:57.770Z,94447.00
2019-02-03T01:33:29.722Z,94423.00
2019-02-03T01:36:01.751Z,94426.00
2019-02-03T01:38:33.627Z,94432.00
2019-02-03T01:41:05.520Z,94427.00
2019-02-03T01:43:37.764Z,94447.00
2019-02-03T01:46:09.686Z,94459.00
2019-02-03T01:48:41.542Z,94471.00
2019-02-03T01:51:13.421Z,94461.00
2019-02-03T01:53:45.272Z,94473.00
2019-02-03T01:56:17.169Z,94472.00
2019-02-03T01:58:49.034Z,94476.00
2019-02-03T02:01:20.912Z,94465.00
2019-02-03T02:03:52.796Z,94460.00
2019-02-03T02:06:24.933Z,94452.00
2019-02-03T02:08:56.782Z,94447.00
2019-02-03T02:11:28.672Z,94462.00
2019-02-03T02:14:00.625Z,94486.00
2019-02-03T02:16:32.499Z,94495.00
2019-02-03T02:19:04.554Z,94492.00
2019-02-03T02:21:38.014Z,94483.00
2019-02-03T02:24:11.183Z,94482.00
2019-02-03T02:26:43.204Z,94491.00
2019-02-03T02:29:15.379Z,94481.00
2019-02-03T02:31:47.400Z,94501.00
2019-02-03T02:34:19.345Z,94506.00
2019-02-03T02:36:51.695Z,94512.00
2019-02-03T02:39:23.729Z,94505.00
2019-02-03T02:41:55.685Z,94507.00
2019-02-03T02:44:27.605Z,94504.00
2019-02-03T02:46:59.492Z,94505.00
2019-02-03T02:49:31.376Z,94496.00
2019-02-03T02:52:03.317Z,94507.00
2019-02-03T02:54:35.367Z,94504.00
2019-02-03T02:57:08.173Z,94500.00
2019-02-03T02:59:40.058Z,94505.00
2019-02-03T03:02:11.895Z,94511.00
2019-02-03T03:04:43.884Z,94503.00
2019-02-03T03:07:15.710Z,94503.00
2019-02-03T03:09:47.898Z,94495.00
2019-02-03T03:12:20.330Z,94498.00
2019-02-03T03:14:52.553Z,94504.00
2019-02-03T03:17:24.861Z,94493.00
2019-02-03T03:19:57.691Z,94499.00
2019-02-03T03:22:29.544Z,94487.00
2019-02-03T03:25:01.453Z,94494.00
2019-02-03T03:27:33.678Z,94503.00
2019-02-03T03:30:10.685Z,94501.00
2019-02-03T03:32:42.567Z,94496.00
2019-02-03T03:35:14.491Z,94496.00
2019-02-03T03:37:46.623Z,94511.00
2019-02-03T03:40:21.980Z,94515.00
2019-02-03T03:42:53.956Z,94518.00
2019-02-03T03:45:26.165Z,94518.00
2019-02-03T03:47:58.043Z,94520.00
2019-02-03T03:50:29.915Z,94518.00
2019-02-03T03:53:01.794Z,94525.00
2019-02-03T03:55:33.713Z,94520.00
2019-02-03T03:58:05.744Z,94534.00
2019-02-03T04:00:37.917Z,94530.00
2019-02-03T04:03:09.806Z,94535.00
2019-02-03T04:05:41.645Z,94545.00
2019-02-03T04:08:13.515Z,94548.00
2019-02-03T04:10:45.359Z,94548.00
2019-02-03T04:13:17.224Z,94551.00
2019-02-03T04:15:49.078Z,94546.00
2019-02-03T04:18:20.953Z,94548.00
2019-02-03T04:20:52.794Z,94550.00
2019-02-03T04:23:25.049Z,94552.00
2019-02-03T04:25:56.930Z,94553.00
2019-02-03T04:28:28.809Z,94557.00
2019-02-03T04:31:00.692Z,94566.00
2019-02-03T04:33:32.570Z,94563.00
2019-02-03T04:36:04.412Z,94575.00
2019-02-03T04:38:36.301Z,94567.00
2019-02-03T04:41:08.140Z,94574.00
2019-02-03T04:43:40.003Z,94582.00
2019-02-03T04:46:11.857Z,94573.00
2019-02-03T04:48:43.730Z,94586.00
2019-02-03T04:51:15.563Z,94590.00
2019-02-03T04:53:47.487Z,94594.00
2019-02-03T04:56:19.338Z,94589.00
2019-02-03T04:58:51.484Z,94589.00
2019-02-03T05:01:23.446Z,94596.00
2019-02-03T05:03:55.329Z,94593.00
2019-02-03T05:06:27.234Z,94596.00
2019-02-03T05:09:10.643Z,94602.00
2019-02-03T05:11:32.755Z,94612.00
2019-02-03T05:14:05.225Z,94608.00
2019-02-03T05:16:37.069Z,94615.00
2019-02-03T05:19:09.042Z,94610.00
2019-02-03T05:21:41.154Z,94620.00
2019-02-03T05:24:13.030Z,94624.00
2019-02-03T05:26:44.889Z,94617.00
2019-02-03T05:29:16.788Z,94628.00
2019-02-03T05:31:48.631Z,94639.00
2019-02-03T05:34:20.517Z,94651.00
2019-02-03T05:36:52.387Z,94654.00
2019-02-03T05:39:25.541Z,94665.00
2019-02-03T05:41:57.683Z,94661.00
2019-02-03T05:44:29.911Z,94684.00
2019-02-03T05:47:01.785Z,94703.00
2019-02-03T05:49:33.644Z,94708.00
2019-02-03T05:52:05.502Z,94709.00
2019-02-03T05:54:37.339Z,94729.00
2019-02-03T05:57:09.331Z,94728.00
2019-02-03T05:59:41.188Z,94725.00
2019-02-03T06:02:13.094Z,94751.00
2019-02-03T06:04:44.926Z,94746.00
2019-02-03T06:07:16.830Z,94742.00
2019-02-03T06:09:48.664Z,94742.00
2019-02-03T06:12:20.656Z,94748.00
2019-02-03T06:14:52.505Z,94761.00
2019-02-03T06:17:24.484Z,94760.00
2019-02-03T06:19:56.545Z,94771.00
2019-02-03T06:22:28.455Z,94782.00
2019-02-03T06:25:00.393Z,94777.00
2019-02-03T06:27:32.406Z,94778.00
2019-02-03T06:30:04.867Z,94788.00
2019-02-03T06:32:36.856Z,94782.00
2019-02-03T06:35:08.728Z,94801.00
2019-02-03T06:37:40.692Z,94793.00
2019-02-03T06:40:12.698Z,94799.00
2019-02-03T06:42:44.988Z,94806.00
2019-02-03T06:45:25.853Z,94807.00
2019-02-03T06:47:59.432Z,94816.00
2019-02-03T06:50:31.444Z,94815.00
2019-02-03T06:53:03.308Z,94826.00
2019-02-03T06:55:35.156Z,94829.00
2019-02-03T06:58:07.049Z,94844.00
2019-02-03T07:00:38.889Z,94847.00
2019-02-03T07:03:10.774Z,94864.00
2019-02-03T07:05:42.633Z,94866.00
2019-02-03T07:08:14.526Z,94876.00
2019-02-03T07:10:46.362Z,94873.00
2019-02-03T07:13:18.233Z,94871.00
2019-02-03T07:15:50.296Z,94892.00
2019-02-03T07:18:22.450Z,94895.00
2019-02-03T07:20:54.509Z,94912.00
2019-02-03T07:23:26.593Z,94905.00
2019-02-03T07:25:58.513Z,94920.00
2019-02-03T07:28:30.635Z,94923.00
2019-02-03T07:31:02.656Z,94923.00
2019-02-03T07:33:34.779Z,94924.00
2019-02-03T07:36:06.930Z,94928.00
2019-02-03T07:38:39.114Z,94955.00
2019-02-03T07:41:11.208Z,94950.00
2019-02-03T07:43:43.194Z,94961.00
2019-02-03T07:46:15.102Z,94968.00
2019-02-03T07:48:47.081Z,94974.00
2019-02-03T07:51:18.929Z,94969.00
2019-02-03T07:53:50.827Z,94977.00
2019-02-03T07:56:22.700Z,94982.00
2019-02-03T07:58:54.596Z,94992.00
2019-02-03T08:01:26.816Z,94976.00
2019-02-03T08:03:58.934Z,94994.00
2019-02-03T08:06:30.791Z,95000.00
2019-02-03T08:09:02.752Z,94998.00
2019-02-03T08:11:34.629Z,95011.00
2019-02-03T08:14:07.149Z,95003.00
2019-02-03T08:16:39.068Z,95010.00
2019-02-03T08:19:11.022Z,95024.00
2019-02-03T08:21:42.914Z,95019.00
2019-02-03T08:24:14.921Z,95028.00
2019-02-03T08:26:46.849Z,95025.00
2019-02-03T08:29:18.904Z,95032.00
2019-02-03T08:31:50.903Z,95041.00
2019-02-03T08:34:23.195Z,95040.00
2019-02-03T08:36:55.442Z,95037.00
2019-02-03T08:39:27.505Z,95046.00
2019-02-03T08:41:59.446Z,95058.00
2019-02-03T08:44:31.346Z,95072.00
2019-02-03T08:47:03.238Z,95072.00
2019-02-03T08:49:35.597Z,95072.00
2019-02-03T08:52:07.772Z,95092.00
2019-02-03T08:54:56.737Z,95103.00
2019-02-03T08:57:13.458Z,95107.00
2019-02-03T08:59:45.410Z,95114.00
2019-02-03T09:02:17.266Z,95110.00
2019-02-03T09:04:49.233Z,95119.00
2019-02-03T09:07:21.141Z,95121.00
2019-02-03T09:09:53.119Z,95120.00
2019-02-03T09:12:25.343Z,95132.00
2019-02-03T09:14:57.637Z,95137.00
2019-02-03T09:17:29.479Z,95138.00
2019-02-03T09:20:01.361Z,95148.00
2019-02-03T09:22:33.229Z,95153.00
2019-02-03T09:25:05.412Z,95161.00
2019-02-03T09:27:37.258Z,95158.00
2019-02-03T09:30:13.163Z,95156.00
2019-02-03T09:32:45.063Z,95163.00
2019-02-03T09:35:18.028Z,95170.00
2019-02-03T09:37:51.716Z,95179.00
2019-02-03T09:40:29.699Z,95166.00
2019-02-03T09:43:01.540Z,95175.00
2019-02-03T09:45:34.500Z,95177.00
2019-02-03T09:48:06.863Z,95174.00
2019-02-03T09:50:38.738Z,95181.00
2019-02-03T09:53:10.592Z,95188.00
2019-02-03T09:55:42.460Z,95197.00
2019-02-03T09:58:14.514Z,95189.00
2019-02-03T10:00:46.437Z,95197.00
2019-02-03T10:03:18.288Z,95205.00
2019-02-03T10:05:50.180Z,95191.00
2019-02-03T10:08:22.082Z,95212.00
2019-02-03T10:10:54.011Z,95209.00
2019-02-03T10:13:25.872Z,95210.00
2019-02-03T10:15:57.768Z,95216.00
2019-02-03T10:18:29.615Z,95218.00
2019-02-03T10:21:02.015Z,95223.00
2019-02-03T10:23:33.886Z,95232.00
2019-02-03T10:26:06.190Z,95229.00
2019-02-03T10:28:38.170Z,95235.00
2019-02-03T10:31:10.072Z,95228.00
2019-02-03T10:33:41.948Z,95235.00
2019-02-03T10:36:13.930Z,95235.00
2019-02-03T10:38:45.954Z,95243.00
2019-02-03T10:41:24.140Z,95239.00
2019-02-03T10:43:51.849Z,95238.00
2019-02-03T10:46:23.739Z,95238.00
2019-02-03T10:48:55.653Z,95243.00
2019-02-03T10:51:27.783Z,95252.00
2019-02-03T10:53:59.635Z,95239.00
2019-02-03T10:56:32.545Z,95241.00
2019-02-03T10:59:05.227Z,95251.00
2019-02-03T11:01:37.402Z,95240.00
2019-02-03T11:04:09.822Z,95254.00
2019-02-03T11:06:41.948Z,95250.00
2019-02-03T11:09:14.422Z,95264.00
2019-02-03T11:11:46.364Z,95275.00
2019-02-03T11:14:18.243Z,95276.00
2019-02-03T11:16:50.218Z,95280.00
2019-02-03T11:19:22.086Z,95272.00
2019-02-03T11:21:54.457Z,95272.00
2019-02-03T11:24:26.385Z,95273.00
2019-02-03T11:26:59.224Z,95284.00
2019-02-03T11:29:31.135Z,95287.00
2019-02-03T11:32:03.017Z,95289.00
2019-02-03T11:34:34.856Z,95289.00
2019-02-03T11:37:06.784Z,95293.00
2019-02-03T11:39:38.724Z,95300.00
2019-02-03T11:42:10.704Z,95296.00
2019-02-03T11:44:42.543Z,95291.00
2019-02-03T11:47:14.424Z,95307.00
2019-02-03T11:49:46.280Z,95308.00
2019-02-03T11:52:18.173Z,95304.00
2019-02-03T11:54:50.098Z,95313.00
2019-02-03T11:57:21.993Z,95313.00
2019-02-03T11:59:53.839Z,95316.00
2019-02-03T12:02:25.827Z,95314.00
2019-02-03T12:04:57.668Z,95323.00
2019-02-03T12:07:29.564Z,95328.00
2019-02-03T12:10:01.410Z,95322.00
2019-02-03T12:12:33.286Z,95330.00
2019-02-03T12:15:05.723Z,95335.00
2019-02-03T12:17:37.670Z,95331.00
2019-02-03T12:20:11.007Z,95333.00
2019-02-03T12:22:42.997Z,95335.00
2019-02-03T12:25:19.373Z,95338.00
2019-02-03T12:27:51.228Z,95346.00
2019-02-03T12:30:30.036Z,95346.00
2019-02-03T12:33:02.216Z,95341.00
2019-02-03T12:35:34.175Z,95354.00
2019-02-03T12:38:06.733Z,95362.00
2019-02-03T12:40:39.083Z,95363.00
2019-02-03T12:43:10.951Z,95363.00
2019-02-03T12:45:43.344Z,95369.00
2019-02-03T12:48:15.189Z,95371.00
2019-02-03T12:50:47.182Z,95373.00
2019-02-03T12:53:19.728Z,95383.00
2019-02-03T12:55:51.973Z,95391.00
2019-02-03T12:58:23.816Z,95387.00
2019-02-03T13:00:56.515Z,95381.00
2019-02-03T13:03:28.362Z,95389.00
2019-02-03T13:06:00.235Z,95399.00
2019-02-03T13:08:32.086Z,95398.00
2019-02-03T13:11:03.969Z,95402.00
2019-02-03T13:13:35.821Z,95412.00
2019-02-03T13:16:07.898Z,95415.00
2019-02-03T13:18:39.798Z,95415.00
2019-02-03T13:21:11.685Z,95421.00
2019-02-03T13:23:45.202Z,95434.00
2019-02-03T13:26:17.216Z,95424.00
2019-02-03T13:28:49.082Z,95436.00
2019-02-03T13:31:21.060Z,95437.00
2019-02-03T13:33:53.045Z,95438.00
2019-02-03T13:36:25.296Z,95452.00
2019-02-03T13:38:57.249Z,95448.00
2019-02-03T13:41:29.164Z,95463.00
2019-02-03T13:44:04.566Z,95462.00
2019-02-03T13:46:36.462Z,95482.00
2019-02-03T13:49:08.636Z,95478.00
2019-02-03T13:51:40.599Z,95480.00
2019-02-03T13:54:12.450Z,95488.00
2019-02-03T13:56:44.348Z,95501.00
2019-02-03T13:59:16.221Z,95508.00
2019-02-03T14:01:50.582Z,95508.00
2019-02-03T14:04:22.331Z,95514.00
2019-02-03T14:06:54.505Z,95524.00
2019-02-03T14:09:26.659Z,95538.00
2019-02-03T14:11:58.711Z,95538.00
2019-02-03T14:14:30.616Z,95543.00
2019-02-03T14:17:02.503Z,95547.00
2019-02-03T14:19:34.399Z,95554.00
2019-02-03T14:22:06.877Z,95565.00
2019-02-03T14:24:38.875Z,95573.00
2019-02-03T14:27:10.745Z,95578.00
2019-02-03T14:29:43.152Z,95571.00
2019-02-03T14:32:15.014Z,95584.00
2019-02-03T14:34:46.909Z,95593.00
2019-02-03T14:37:18.773Z,95595.00
2019-02-03T14:39:50.714Z,95597.00
2019-02-03T14:42:23.650Z,95605.00
2019-02-03T14:44:56.375Z,95606.00
2019-02-03T14:47:28.253Z,95619.00
2019-02-03T14:50:00.236Z,95618.00
2019-02-03T14:52:32.093Z,95630.00
2019-02-03T14:55:04.152Z,95628.00
2019-02-03T14:57:36.043Z,95638.00
2019-02-03T15:00:25.562Z,95650.00
2019-02-03T15:02:57.712Z,95648.00
2019-02-03T15:05:29.959Z,95655.00
2019-02-03T15:08:01.861Z,95641.00
2019-02-03T15:10:33.857Z,95661.00
2019-02-03T15:13:13.729Z,95660.00
2019-02-03T15:15:40.055Z,95662.00
2019-02-03T15:18:11.914Z,95683.00
2019-02-03T15:20:43.796Z,95684.00
2019-02-03T15:23:15.634Z,95693.00
2019-02-03T15:25:47.530Z,95689.00
2019-02-03T15:28:19.538Z,95700.00
2019-02-03T15:30:51.427Z,95707.00
2019-02-03T15:33:23.276Z,95716.00
2019-02-03T15:35:55.215Z,95714.00
2019-02-03T15:38:27.069Z,95714.00
2019-02-03T15:40:58.990Z,95720.00
2019-02-03T15:43:30.888Z,95726.00
2019-02-03T15:46:02.835Z,95725.00
2019-02-03T15:48:34.701Z,95732.00
2019-02-03T15:51:06.729Z,95742.00
2019-02-03T15:53:38.568Z,95741.00
2019-02-03T15:56:10.441Z,95755.00
2019-02-03T15:58:42.303Z,95752.00
2019-02-03T16:01:14.199Z,95758.00
2019-02-03T16:03:46.029Z,95772.00
2019-02-03T16:06:17.911Z,95775.00
2019-02-03T16:08:49.768Z,95782.00
2019-02-03T16:11:22.538Z,95782.00
2019-02-03T16:13:54.555Z,95786.00
2019-02-03T16:16:26.694Z,95795.00
2019-02-03T16:18:58.741Z,95791.00
2019-02-03T16:21:31.062Z,95805.00
2019-02-03T16:24:02.966Z,95805.00
2019-02-03T16:26:34.837Z,95802.00
2019-02-03T16:29:06.971Z,95813.00
2019-02-03T16:31:38.830Z,95818.00
2019-02-03T16:34:10.995Z,95821.00
2019-02-03T16:36:42.931Z,95827.00
2019-02-03T16:39:14.765Z,95827.00
2019-02-03T16:41:46.769Z,95841.00
2019-02-03T16:44:18.605Z,95838.00
2019-02-03T16:46:50.487Z,95855.00
2019-02-03T16:49:22.391Z,95857.00
2019-02-03T16:51:54.725Z,95855.00
2019-02-03T16:54:26.555Z,95858.00
2019-02-03T16:56:58.430Z,95871.00
2019-02-03T16:59:30.268Z,95878.00
2019-02-03T17:02:02.431Z,95885.00
2019-02-03T17:04:34.286Z,95892.00
2019-02-03T17:07:06.570Z,95907.00
2019-02-03T17:09:38.523Z,95911.00
2019-02-03T17:12:10.350Z,95909.00
2019-02-03T17:14:42.203Z,95914.00
2019-02-03T17:17:14.054Z,95919.00
2019-02-03T17:19:45.907Z,95923.00
2019-02-03T17:22:17.776Z,95929.00
2019-02-03T17:24:49.839Z,95933.00
2019-02-03T17:27:21.692Z,95939.00
2019-02-03T17:29:53.611Z,95946.00
2019-02-03T17:32:25.489Z,95951.00
2019-02-03T17:34:57.368Z,95944.00
2019-02-03T17:37:29.401Z,95954.00
2019-02-03T17:40:01.602Z,95956.00
2019-02-03T17:42:33.475Z,95962.00
2019-02-03T17:45:07.473Z,95970.00
2019-02-03T17:47:39.336Z,95982.00
2019-02-03T17:50:14.581Z,95992.00
2019-02-03T17:52:46.441Z,95991.00
2019-02-03T17:55:20.013Z,95996.00
2019-02-03T17:57:51.962Z,95999.00
2019-02-03T18:00:34.457Z,96011.00
2019-02-03T18:03:06.471Z,96009.00
2019-02-03T18:05:38.345Z,96017.00
2019-02-03T18:08:10.609Z,96032.00
2019-02-03T18:10:42.492Z,96041.00
2019-02-03T18:13:14.337Z,96044.00
2019-02-03T18:15:46.229Z,96038.00
2019-02-03T18:18:18.047Z,96040.00
2019-02-03T18:20:50.109Z,96064.00
2019-02-03T18:23:21.957Z,96057.00
2019-02-03T18:25:53.893Z,96060.00
2019-02-03T18:28:25.736Z,96058.00
2019-02-03T18:30:57.777Z,96072.00
2019-02-03T18:33:29.899Z,96067.00
2019-02-03T18:36:01.899Z,96086.00
2019-02-03T18:38:33.750Z,96078.00
2019-02-03T18:41:05.721Z,96096.00
2019-02-03T18:43:37.559Z,96098.00
2019-02-03T18:46:09.539Z,96101.00
2019-02-03T18:48:41.391Z,96099.00
2019-02-03T18:51:13.256Z,96110.00
2019-02-03T18:53:45.105Z,96114.00
2019-02-03T18:56:17.015Z,96122.00
2019-02-03T18:58:48.980Z,96127.00
2019-02-03T19:01:20.855Z,96121.00
2019-02-03T19:03:52.694Z,96132.00
2019-02-03T19:06:24.567Z,96128.00
2019-02-03T19:08:56.783Z,96132.00
2019-02-03T19:11:28.662Z,96140.00
2019-02-03T19:14:00.524Z,96139.00
2019-02-03T19:16:32.405Z,96140.00
2019-02-03T19:19:04.554Z,96148.00
2019-02-03T19:21:36.483Z,96158.00
2019-02-03T19:24:08.335Z,96151.00
2019-02-03T19:26:40.240Z,96159.00
2019-02-03T19:29:12.175Z,96177.00
2019-02-03T19:31:44.465Z,96176.00
2019-02-03T19:34:16.345Z,96171.00
2019-02-03T19:36:48.591Z,96186.00
2019-02-03T19:39:20.399Z,96188.00
2019-02-03T19:41:52.311Z,96193.00
2019-02-03T19:44:25.084Z,96193.00
2019-02-03T19:46:57.255Z,96194.00
2019-02-03T19:49:29.129Z,96209.00
2019-02-03T19:52:01.064Z,96206.00
2019-02-03T19:54:32.914Z,96215.00
2019-02-03T19:57:04.788Z,96215.00
2019-02-03T19:59:46.583Z,96213.00
2019-02-03T20:02:10.180Z,96221.00
2019-02-03T20:04:42.133Z,96230.00
2019-02-03T20:07:14.152Z,96231.00
2019-02-03T20:09:46.128Z,96236.00
2019-02-03T20:12:17.982Z,96239.00
2019-02-03T20:14:49.925Z,96248.00
2019-02-03T20:17:21.844Z,96248.00
2019-02-03T20:19:54.089Z,96255.00
2019-02-03T20:22:25.990Z,96262.00
2019-02-03T20:24:57.992Z,96265.00
2019-02-03T20:27:30.053Z,96257.00
2019-02-03T20:30:02.807Z,96271.00
2019-02-03T20:32:34.961Z,96276.00
2019-02-03T20:35:09.040Z,96278.00
2019-02-03T20:37:40.891Z,96296.00
2019-02-03T20:40:19.469Z,96293.00
2019-02-03T20:42:51.728Z,96300.00
2019-02-03T20:45:24.153Z,96302.00
2019-02-03T20:47:56.125Z,96313.00
2019-02-03T20:50:28.179Z,96309.00
2019-02-03T20:53:00.636Z,96311.00
2019-02-03T20:55:32.478Z,96323.00
2019-02-03T20:58:04.380Z,96329.00
2019-02-03T21:00:36.773Z,96345.00
2019-02-03T21:03:08.790Z,96338.00
2019-02-03T21:05:40.676Z,96336.00
2019-02-03T21:08:12.717Z,96345.00
2019-02-03T21:10:44.735Z,96359.00
2019-02-03T21:13:17.811Z,96359.00
2019-02-03T21:15:49.954Z,96357.00
2019-02-03T21:18:21.902Z,96365.00
2019-02-03T21:20:53.811Z,96372.00
2019-02-03T21:23:25.695Z,96369.00
2019-02-03T21:25:57.686Z,96375.00
2019-02-03T21:28:30.794Z,96382.00
2019-02-03T21:31:02.703Z,96379.00
2019-02-03T21:33:34.617Z,96389.00
2019-02-03T21:36:06.731Z,96386.00
2019-02-03T21:38:39.065Z,96396.00
2019-02-03T21:41:10.951Z,96409.00
2019-02-03T21:43:46.103Z,96400.00
2019-02-03T21:46:18.337Z,96408.00
2019-02-03T21:48:52.023Z,96407.00
2019-02-03T21:51:24.057Z,96411.00
2019-02-03T21:53:56.202Z,96422.00
2019-02-03T21:56:28.463Z,96420.00
2019-02-03T21:59:00.342Z,96430.00
2019-02-03T22:01:32.181Z,96430.00
2019-02-03T22:04:04.226Z,96437.00
2019-02-03T22:06:37.743Z,96425.00
2019-02-03T22:09:10.408Z,96435.00
2019-02-03T22:11:43.269Z,96453.00
2019-02-03T22:14:15.339Z,96456.00
2019-02-03T22:16:47.183Z,96448.00
2019-02-03T22:19:21.194Z,96462.00
2019-02-03T22:21:53.053Z,96456.00
2019-02-03T22:24:25.026Z,96462.00
2019-02-03T22:26:56.878Z,96464.00
2019-02-03T22:29:28.841Z,96477.00
2019-02-03T22:32:00.702Z,96476.00
2019-02-03T22:34:32.557Z,96472.00
2019-02-03T22:37:04.581Z,96484.00
2019-02-03T22:39:45.621Z,96484.00
2019-02-03T22:42:18.384Z,96487.00
2019-02-03T22:44:50.359Z,96486.00
2019-02-03T22:47:22.409Z,96492.00
2019-02-03T22:49:54.280Z,96497.00
2019-02-03T22:52:26.237Z,96498.00
2019-02-03T22:54:58.100Z,96506.00
2019-02-03T22:57:30.144Z,96511.00
2019-02-03T23:00:02.235Z,96502.00
2019-02-03T23:02:34.104Z,96521.00
2019-02-03T23:05:06.828Z,96512.00
2019-02-03T23:07:38.697Z,96516.00
2019-02-03T23:10:10.887Z,96521.00
2019-02-03T23:12:42.733Z,96518.00
2019-02-03T23:15:14.616Z,96534.00
2019-02-03T23:17:46.466Z,96527.00
2019-02-03T23:20:18.538Z,96539.00
2019-02-03T23:22:50.361Z,96537.00
2019-02-03T23:25:22.223Z,96537.00
2019-02-03T23:27:54.055Z,96536.00
2019-02-03T23:30:25.958Z,96537.00
2019-02-03T23:32:57.839Z,96541.00
2019-02-03T23:35:29.826Z,96544.00
2019-02-03T23:38:01.660Z,96555.00
2019-02-03T23:40:33.533Z,96560.00
2019-02-03T23:43:05.377Z,96560.00
2019-02-03T23:45:37.874Z,96563.00
2019-02-03T23:48:09.761Z,96568.00
2019-02-03T23:50:41.855Z,96577.00
2019-02-03T23:53:13.720Z,96572.00
2019-02-03T23:55:45.716Z,96582.00
2019-02-03T23:58:17.610Z,96576.00
